sensor_id;sensor_type;location;lat;lon;timestamp;temperature;humidity
34644;DHT22;26931;43.498;-1.506;2022-12-07T00:01:08;11.70;98.50
34644;DHT22;26931;43.498;-1.506;2022-12-07T00:03:35;11.70;98.50
34644;DHT22;26931;43.498;-1.506;2022-12-07T00:06:06;11.70;98.60
34644;DHT22;26931;43.498;-1.506;2022-12-07T00:08:39;11.70;98.50
34644;DHT22;26931;43.498;-1.506;2022-12-07T00:11:08;11.80;98.50
34644;DHT22;26931;43.498;-1.506;2022-12-07T00:13:35;11.80;98.60
34644;DHT22;26931;43.498;-1.506;2022-12-07T00:16:10;11.80;98.60
34644;DHT22;26931;43.498;-1.506;2022-12-07T00:18:37;11.90;98.60
34644;DHT22;26931;43.498;-1.506;2022-12-07T00:21:06;11.90;98.60
34644;DHT22;26931;43.498;-1.506;2022-12-07T00:23:33;12.00;98.70
34644;DHT22;26931;43.498;-1.506;2022-12-07T00:26:14;12.00;98.70
34644;DHT22;26931;43.498;-1.506;2022-12-07T00:28:44;12.00;98.70
34644;DHT22;26931;43.498;-1.506;2022-12-07T00:31:12;12.00;98.70
34644;DHT22;26931;43.498;-1.506;2022-12-07T00:33:38;12.00;98.80
34644;DHT22;26931;43.498;-1.506;2022-12-07T00:36:10;12.00;98.90
34644;DHT22;26931;43.498;-1.506;2022-12-07T00:38:38;12.10;98.90
34644;DHT22;26931;43.498;-1.506;2022-12-07T00:41:11;12.10;98.90
34644;DHT22;26931;43.498;-1.506;2022-12-07T00:43:38;12.10;98.90
34644;DHT22;26931;43.498;-1.506;2022-12-07T00:46:04;12.10;98.90
34644;DHT22;26931;43.498;-1.506;2022-12-07T00:48:31;12.10;98.90
34644;DHT22;26931;43.498;-1.506;2022-12-07T00:50:57;12.10;99.00
34644;DHT22;26931;43.498;-1.506;2022-12-07T00:53:23;12.10;99.00
34644;DHT22;26931;43.498;-1.506;2022-12-07T00:55:50;12.20;99.10
34644;DHT22;26931;43.498;-1.506;2022-12-07T00:58:16;12.10;99.10
34644;DHT22;26931;43.498;-1.506;2022-12-07T01:00:43;12.10;99.10
34644;DHT22;26931;43.498;-1.506;2022-12-07T01:03:11;12.20;99.10
34644;DHT22;26931;43.498;-1.506;2022-12-07T01:05:37;12.20;99.20
34644;DHT22;26931;43.498;-1.506;2022-12-07T01:08:04;12.20;99.30
34644;DHT22;26931;43.498;-1.506;2022-12-07T01:10:30;12.10;99.20
34644;DHT22;26931;43.498;-1.506;2022-12-07T01:12:57;12.20;99.30
34644;DHT22;26931;43.498;-1.506;2022-12-07T01:15:24;12.20;99.30
34644;DHT22;26931;43.498;-1.506;2022-12-07T01:17:50;12.20;99.30
34644;DHT22;26931;43.498;-1.506;2022-12-07T01:20:17;12.20;99.30
34644;DHT22;26931;43.498;-1.506;2022-12-07T01:22:43;12.20;99.70
34644;DHT22;26931;43.498;-1.506;2022-12-07T01:25:10;12.30;99.40
34644;DHT22;26931;43.498;-1.506;2022-12-07T01:27:37;12.30;99.50
34644;DHT22;26931;43.498;-1.506;2022-12-07T01:30:05;12.30;99.50
34644;DHT22;26931;43.498;-1.506;2022-12-07T01:32:32;12.30;99.50
34644;DHT22;26931;43.498;-1.506;2022-12-07T01:34:58;12.30;99.50
34644;DHT22;26931;43.498;-1.506;2022-12-07T01:37:24;12.30;99.50
34644;DHT22;26931;43.498;-1.506;2022-12-07T01:39:51;12.30;99.50
34644;DHT22;26931;43.498;-1.506;2022-12-07T01:42:18;12.30;99.50
34644;DHT22;26931;43.498;-1.506;2022-12-07T01:47:49;12.30;99.60
34644;DHT22;26931;43.498;-1.506;2022-12-07T01:50:16;12.30;99.60
34644;DHT22;26931;43.498;-1.506;2022-12-07T01:52:44;12.30;99.50
34644;DHT22;26931;43.498;-1.506;2022-12-07T01:55:13;12.40;99.60
34644;DHT22;26931;43.498;-1.506;2022-12-07T01:57:43;12.40;99.60
34644;DHT22;26931;43.498;-1.506;2022-12-07T02:00:11;12.40;99.60
34644;DHT22;26931;43.498;-1.506;2022-12-07T02:05:13;12.30;99.60
34644;DHT22;26931;43.498;-1.506;2022-12-07T02:07:39;12.40;99.60
34644;DHT22;26931;43.498;-1.506;2022-12-07T02:10:15;12.40;99.60
34644;DHT22;26931;43.498;-1.506;2022-12-07T02:12:43;12.40;99.60
34644;DHT22;26931;43.498;-1.506;2022-12-07T02:15:10;12.20;99.50
34644;DHT22;26931;43.498;-1.506;2022-12-07T02:20:59;12.40;99.60
34644;DHT22;26931;43.498;-1.506;2022-12-07T02:29:25;12.40;99.60
34644;DHT22;26931;43.498;-1.506;2022-12-07T02:32:13;12.30;99.60
34644;DHT22;26931;43.498;-1.506;2022-12-07T02:35:00;12.30;99.60
34644;DHT22;26931;43.498;-1.506;2022-12-07T02:38:03;12.30;99.80
34644;DHT22;26931;43.498;-1.506;2022-12-07T02:40:38;12.30;99.70
34644;DHT22;26931;43.498;-1.506;2022-12-07T02:45:53;12.40;99.70
34644;DHT22;26931;43.498;-1.506;2022-12-07T02:48:21;12.40;99.70
34644;DHT22;26931;43.498;-1.506;2022-12-07T02:50:52;12.40;99.70
34644;DHT22;26931;43.498;-1.506;2022-12-07T02:53:32;12.40;99.70
34644;DHT22;26931;43.498;-1.506;2022-12-07T02:56:26;12.40;99.80
34644;DHT22;26931;43.498;-1.506;2022-12-07T03:02:02;12.40;99.70
34644;DHT22;26931;43.498;-1.506;2022-12-07T03:07:18;12.40;99.70
34644;DHT22;26931;43.498;-1.506;2022-12-07T03:09:52;12.40;99.70
34644;DHT22;26931;43.498;-1.506;2022-12-07T03:12:27;12.30;99.80
34644;DHT22;26931;43.498;-1.506;2022-12-07T03:15:14;12.30;99.80
34644;DHT22;26931;43.498;-1.506;2022-12-07T03:17:44;12.30;99.90
34644;DHT22;26931;43.498;-1.506;2022-12-07T03:20:13;12.30;99.90
34644;DHT22;26931;43.498;-1.506;2022-12-07T03:22:41;12.30;99.90
34644;DHT22;26931;43.498;-1.506;2022-12-07T03:25:11;12.20;99.90
34644;DHT22;26931;43.498;-1.506;2022-12-07T03:27:46;12.30;99.90
34644;DHT22;26931;43.498;-1.506;2022-12-07T03:30:20;12.30;99.90
34644;DHT22;26931;43.498;-1.506;2022-12-07T03:33:03;12.30;99.90
34644;DHT22;26931;43.498;-1.506;2022-12-07T03:35:36;12.30;99.90
34644;DHT22;26931;43.498;-1.506;2022-12-07T03:38:26;12.30;99.90
34644;DHT22;26931;43.498;-1.506;2022-12-07T03:41:00;12.30;99.90
34644;DHT22;26931;43.498;-1.506;2022-12-07T03:43:30;12.30;99.90
34644;DHT22;26931;43.498;-1.506;2022-12-07T03:51:08;12.30;99.90
34644;DHT22;26931;43.498;-1.506;2022-12-07T03:53:48;12.30;99.90
34644;DHT22;26931;43.498;-1.506;2022-12-07T03:56:17;12.30;99.90
34644;DHT22;26931;43.498;-1.506;2022-12-07T03:58:44;12.30;99.90
34644;DHT22;26931;43.498;-1.506;2022-12-07T04:01:09;12.30;99.90
34644;DHT22;26931;43.498;-1.506;2022-12-07T04:03:36;12.30;99.90
34644;DHT22;26931;43.498;-1.506;2022-12-07T04:06:02;12.30;99.90
34644;DHT22;26931;43.498;-1.506;2022-12-07T04:08:28;12.40;99.90
34644;DHT22;26931;43.498;-1.506;2022-12-07T04:10:54;12.40;99.90
34644;DHT22;26931;43.498;-1.506;2022-12-07T04:13:20;12.40;99.90
34644;DHT22;26931;43.498;-1.506;2022-12-07T04:15:46;12.40;99.90
34644;DHT22;26931;43.498;-1.506;2022-12-07T04:18:12;12.40;99.80
34644;DHT22;26931;43.498;-1.506;2022-12-07T04:20:38;12.20;99.80
34644;DHT22;26931;43.498;-1.506;2022-12-07T04:23:03;12.40;99.90
34644;DHT22;26931;43.498;-1.506;2022-12-07T04:25:29;12.40;99.90
34644;DHT22;26931;43.498;-1.506;2022-12-07T04:27:55;12.40;99.90
34644;DHT22;26931;43.498;-1.506;2022-12-07T04:30:21;12.40;99.80
34644;DHT22;26931;43.498;-1.506;2022-12-07T04:32:47;12.40;99.80
34644;DHT22;26931;43.498;-1.506;2022-12-07T04:35:13;12.50;99.90
34644;DHT22;26931;43.498;-1.506;2022-12-07T04:37:39;12.30;99.80
34644;DHT22;26931;43.498;-1.506;2022-12-07T04:40:07;12.60;99.80
34644;DHT22;26931;43.498;-1.506;2022-12-07T04:42:34;12.40;99.80
34644;DHT22;26931;43.498;-1.506;2022-12-07T04:44:59;12.40;99.90
34644;DHT22;26931;43.498;-1.506;2022-12-07T04:47:25;12.40;99.90
34644;DHT22;26931;43.498;-1.506;2022-12-07T04:49:51;12.40;99.90
34644;DHT22;26931;43.498;-1.506;2022-12-07T04:52:17;12.40;99.90
34644;DHT22;26931;43.498;-1.506;2022-12-07T04:54:43;12.40;99.80
34644;DHT22;26931;43.498;-1.506;2022-12-07T04:57:09;12.40;99.80
34644;DHT22;26931;43.498;-1.506;2022-12-07T04:59:35;12.40;99.80
34644;DHT22;26931;43.498;-1.506;2022-12-07T05:02:01;12.40;99.80
34644;DHT22;26931;43.498;-1.506;2022-12-07T05:04:27;12.40;99.80
34644;DHT22;26931;43.498;-1.506;2022-12-07T05:06:53;12.40;99.80
34644;DHT22;26931;43.498;-1.506;2022-12-07T05:09:19;12.40;99.80
34644;DHT22;26931;43.498;-1.506;2022-12-07T05:11:45;12.40;99.80
34644;DHT22;26931;43.498;-1.506;2022-12-07T05:14:15;12.40;99.80
34644;DHT22;26931;43.498;-1.506;2022-12-07T05:16:42;12.20;99.70
34644;DHT22;26931;43.498;-1.506;2022-12-07T05:19:09;12.40;99.70
34644;DHT22;26931;43.498;-1.506;2022-12-07T05:21:35;12.40;99.70
34644;DHT22;26931;43.498;-1.506;2022-12-07T05:24:02;12.30;99.70
34644;DHT22;26931;43.498;-1.506;2022-12-07T05:26:28;12.30;99.70
34644;DHT22;26931;43.498;-1.506;2022-12-07T05:28:55;12.30;99.70
34644;DHT22;26931;43.498;-1.506;2022-12-07T05:31:22;12.10;99.60
34644;DHT22;26931;43.498;-1.506;2022-12-07T05:33:49;12.30;99.70
34644;DHT22;26931;43.498;-1.506;2022-12-07T05:36:15;12.30;99.70
34644;DHT22;26931;43.498;-1.506;2022-12-07T05:38:41;12.30;99.70
34644;DHT22;26931;43.498;-1.506;2022-12-07T05:41:08;12.30;99.70
34644;DHT22;26931;43.498;-1.506;2022-12-07T05:43:55;12.20;99.70
34644;DHT22;26931;43.498;-1.506;2022-12-07T05:46:21;12.20;99.70
34644;DHT22;26931;43.498;-1.506;2022-12-07T05:48:47;12.20;99.70
34644;DHT22;26931;43.498;-1.506;2022-12-07T05:51:13;12.30;99.70
34644;DHT22;26931;43.498;-1.506;2022-12-07T05:53:39;12.30;99.70
34644;DHT22;26931;43.498;-1.506;2022-12-07T05:56:05;12.30;99.70
34644;DHT22;26931;43.498;-1.506;2022-12-07T05:58:31;12.30;99.70
34644;DHT22;26931;43.498;-1.506;2022-12-07T06:01:15;12.30;99.70
34644;DHT22;26931;43.498;-1.506;2022-12-07T06:03:41;12.20;99.60
34644;DHT22;26931;43.498;-1.506;2022-12-07T06:06:08;12.20;99.70
34644;DHT22;26931;43.498;-1.506;2022-12-07T06:08:34;12.20;99.70
34644;DHT22;26931;43.498;-1.506;2022-12-07T06:11:00;12.00;99.60
34644;DHT22;26931;43.498;-1.506;2022-12-07T06:13:44;12.10;99.70
34644;DHT22;26931;43.498;-1.506;2022-12-07T06:16:10;12.10;99.80
34644;DHT22;26931;43.498;-1.506;2022-12-07T06:18:39;12.00;99.80
34644;DHT22;26931;43.498;-1.506;2022-12-07T06:21:05;12.00;99.80
34644;DHT22;26931;43.498;-1.506;2022-12-07T06:23:31;12.00;99.90
34644;DHT22;26931;43.498;-1.506;2022-12-07T06:25:57;12.00;99.80
34644;DHT22;26931;43.498;-1.506;2022-12-07T06:28:23;12.20;99.80
34644;DHT22;26931;43.498;-1.506;2022-12-07T06:30:59;12.10;99.80
34644;DHT22;26931;43.498;-1.506;2022-12-07T06:33:26;12.10;99.80
34644;DHT22;26931;43.498;-1.506;2022-12-07T06:35:53;12.10;99.70
34644;DHT22;26931;43.498;-1.506;2022-12-07T06:38:19;12.00;99.70
34644;DHT22;26931;43.498;-1.506;2022-12-07T06:40:46;12.00;99.60
34644;DHT22;26931;43.498;-1.506;2022-12-07T06:43:12;12.00;99.60
34644;DHT22;26931;43.498;-1.506;2022-12-07T06:45:38;12.00;99.60
34644;DHT22;26931;43.498;-1.506;2022-12-07T06:48:04;12.00;99.50
34644;DHT22;26931;43.498;-1.506;2022-12-07T06:50:30;12.00;99.50
34644;DHT22;26931;43.498;-1.506;2022-12-07T06:52:56;12.00;99.40
34644;DHT22;26931;43.498;-1.506;2022-12-07T06:55:22;12.00;99.50
34644;DHT22;26931;43.498;-1.506;2022-12-07T06:57:49;12.00;99.50
34644;DHT22;26931;43.498;-1.506;2022-12-07T07:00:17;11.90;99.40
34644;DHT22;26931;43.498;-1.506;2022-12-07T07:02:47;11.90;99.40
34644;DHT22;26931;43.498;-1.506;2022-12-07T07:05:16;11.90;99.40
34644;DHT22;26931;43.498;-1.506;2022-12-07T07:07:43;11.90;99.30
34644;DHT22;26931;43.498;-1.506;2022-12-07T07:10:16;11.90;99.30
34644;DHT22;26931;43.498;-1.506;2022-12-07T07:12:49;11.80;99.20
34644;DHT22;26931;43.498;-1.506;2022-12-07T07:15:20;11.90;99.30
34644;DHT22;26931;43.498;-1.506;2022-12-07T07:17:50;11.80;99.20
34644;DHT22;26931;43.498;-1.506;2022-12-07T07:20:16;11.80;99.20
34644;DHT22;26931;43.498;-1.506;2022-12-07T07:22:45;11.80;99.20
34644;DHT22;26931;43.498;-1.506;2022-12-07T07:25:12;11.80;99.20
34644;DHT22;26931;43.498;-1.506;2022-12-07T07:27:41;11.80;99.30
34644;DHT22;26931;43.498;-1.506;2022-12-07T07:30:08;11.80;99.20
34644;DHT22;26931;43.498;-1.506;2022-12-07T07:32:34;11.80;99.20
34644;DHT22;26931;43.498;-1.506;2022-12-07T07:35:00;11.80;99.50
34644;DHT22;26931;43.498;-1.506;2022-12-07T07:37:32;11.80;99.20
34644;DHT22;26931;43.498;-1.506;2022-12-07T07:39:58;11.80;99.20
34644;DHT22;26931;43.498;-1.506;2022-12-07T07:42:28;11.70;99.20
34644;DHT22;26931;43.498;-1.506;2022-12-07T07:44:57;11.70;99.20
34644;DHT22;26931;43.498;-1.506;2022-12-07T07:47:23;11.70;99.20
34644;DHT22;26931;43.498;-1.506;2022-12-07T07:49:48;11.70;99.30
34644;DHT22;26931;43.498;-1.506;2022-12-07T07:52:14;11.70;99.20
34644;DHT22;26931;43.498;-1.506;2022-12-07T07:54:43;11.70;99.30
34644;DHT22;26931;43.498;-1.506;2022-12-07T07:57:12;11.70;99.30
34644;DHT22;26931;43.498;-1.506;2022-12-07T07:59:38;11.70;99.30
34644;DHT22;26931;43.498;-1.506;2022-12-07T08:02:05;11.70;99.30
34644;DHT22;26931;43.498;-1.506;2022-12-07T08:04:31;11.80;99.30
34644;DHT22;26931;43.498;-1.506;2022-12-07T08:06:57;11.80;99.30
34644;DHT22;26931;43.498;-1.506;2022-12-07T08:09:23;11.80;99.30
34644;DHT22;26931;43.498;-1.506;2022-12-07T08:11:49;11.80;99.30
34644;DHT22;26931;43.498;-1.506;2022-12-07T08:14:15;11.90;99.20
34644;DHT22;26931;43.498;-1.506;2022-12-07T08:16:41;11.80;99.10
34644;DHT22;26931;43.498;-1.506;2022-12-07T08:19:10;12.00;99.20
34644;DHT22;26931;43.498;-1.506;2022-12-07T08:21:36;11.90;99.20
34644;DHT22;26931;43.498;-1.506;2022-12-07T08:24:03;11.90;99.20
34644;DHT22;26931;43.498;-1.506;2022-12-07T08:26:29;12.00;99.20
34644;DHT22;26931;43.498;-1.506;2022-12-07T08:28:55;11.90;99.10
34644;DHT22;26931;43.498;-1.506;2022-12-07T08:31:20;11.90;99.10
34644;DHT22;26931;43.498;-1.506;2022-12-07T08:33:47;12.00;99.10
34644;DHT22;26931;43.498;-1.506;2022-12-07T08:36:14;11.90;99.10
34644;DHT22;26931;43.498;-1.506;2022-12-07T08:38:41;12.00;99.10
34644;DHT22;26931;43.498;-1.506;2022-12-07T08:41:07;12.00;99.10
34644;DHT22;26931;43.498;-1.506;2022-12-07T08:43:35;12.00;99.10
34644;DHT22;26931;43.498;-1.506;2022-12-07T08:46:09;12.00;99.10
34644;DHT22;26931;43.498;-1.506;2022-12-07T08:48:42;12.00;99.10
34644;DHT22;26931;43.498;-1.506;2022-12-07T08:51:09;12.00;99.10
34644;DHT22;26931;43.498;-1.506;2022-12-07T08:53:37;12.00;99.00
34644;DHT22;26931;43.498;-1.506;2022-12-07T08:56:05;12.00;99.00
34644;DHT22;26931;43.498;-1.506;2022-12-07T08:58:33;12.00;99.00
34644;DHT22;26931;43.498;-1.506;2022-12-07T09:00:59;12.00;99.00
34644;DHT22;26931;43.498;-1.506;2022-12-07T09:03:25;12.00;99.00
34644;DHT22;26931;43.498;-1.506;2022-12-07T09:05:53;12.00;99.00
34644;DHT22;26931;43.498;-1.506;2022-12-07T09:08:19;12.10;99.00
34644;DHT22;26931;43.498;-1.506;2022-12-07T09:10:45;12.10;99.00
34644;DHT22;26931;43.498;-1.506;2022-12-07T09:13:13;12.10;99.00
34644;DHT22;26931;43.498;-1.506;2022-12-07T09:15:39;12.10;99.00
34644;DHT22;26931;43.498;-1.506;2022-12-07T09:18:05;12.20;99.00
34644;DHT22;26931;43.498;-1.506;2022-12-07T09:20:31;12.20;99.00
34644;DHT22;26931;43.498;-1.506;2022-12-07T09:22:57;12.20;99.00
34644;DHT22;26931;43.498;-1.506;2022-12-07T09:25:23;12.20;99.00
34644;DHT22;26931;43.498;-1.506;2022-12-07T09:27:56;12.30;99.00
34644;DHT22;26931;43.498;-1.506;2022-12-07T09:30:22;12.30;99.00
34644;DHT22;26931;43.498;-1.506;2022-12-07T09:32:48;12.30;98.90
34644;DHT22;26931;43.498;-1.506;2022-12-07T09:35:15;12.30;98.90
34644;DHT22;26931;43.498;-1.506;2022-12-07T09:37:41;12.40;99.00
34644;DHT22;26931;43.498;-1.506;2022-12-07T09:40:07;12.40;98.90
34644;DHT22;26931;43.498;-1.506;2022-12-07T09:42:39;12.40;98.90
34644;DHT22;26931;43.498;-1.506;2022-12-07T09:45:23;12.40;98.90
34644;DHT22;26931;43.498;-1.506;2022-12-07T09:47:50;12.30;98.80
34644;DHT22;26931;43.498;-1.506;2022-12-07T09:50:23;12.50;98.80
34644;DHT22;26931;43.498;-1.506;2022-12-07T09:52:50;12.50;98.80
34644;DHT22;26931;43.498;-1.506;2022-12-07T09:55:27;12.50;98.80
34644;DHT22;26931;43.498;-1.506;2022-12-07T09:57:53;12.50;98.80
34644;DHT22;26931;43.498;-1.506;2022-12-07T10:00:23;12.50;98.70
34644;DHT22;26931;43.498;-1.506;2022-12-07T10:03:00;12.50;99.00
34644;DHT22;26931;43.498;-1.506;2022-12-07T10:05:36;12.60;98.80
34644;DHT22;26931;43.498;-1.506;2022-12-07T10:08:04;12.60;98.80
34644;DHT22;26931;43.498;-1.506;2022-12-07T10:10:32;12.60;98.80
34644;DHT22;26931;43.498;-1.506;2022-12-07T10:18:38;12.70;98.60
34644;DHT22;26931;43.498;-1.506;2022-12-07T10:21:10;12.80;98.70
34644;DHT22;26931;43.498;-1.506;2022-12-07T10:23:41;12.80;98.70
34644;DHT22;26931;43.498;-1.506;2022-12-07T10:28:53;12.90;98.60
34644;DHT22;26931;43.498;-1.506;2022-12-07T10:31:22;13.10;98.70
34644;DHT22;26931;43.498;-1.506;2022-12-07T10:33:51;13.00;98.70
34644;DHT22;26931;43.498;-1.506;2022-12-07T10:36:43;13.00;98.70
34644;DHT22;26931;43.498;-1.506;2022-12-07T10:39:18;13.10;98.70
34644;DHT22;26931;43.498;-1.506;2022-12-07T10:42:19;13.10;98.70
34644;DHT22;26931;43.498;-1.506;2022-12-07T10:44:46;13.20;98.70
34644;DHT22;26931;43.498;-1.506;2022-12-07T10:50:12;13.30;98.70
34644;DHT22;26931;43.498;-1.506;2022-12-07T11:01:01;13.50;98.70
34644;DHT22;26931;43.498;-1.506;2022-12-07T11:03:44;13.50;98.70
34644;DHT22;26931;43.498;-1.506;2022-12-07T11:17:43;13.70;98.70
34644;DHT22;26931;43.498;-1.506;2022-12-07T11:23:04;13.80;98.70
34644;DHT22;26931;43.498;-1.506;2022-12-07T11:25:42;13.70;98.60
34644;DHT22;26931;43.498;-1.506;2022-12-07T11:28:25;13.90;98.70
34644;DHT22;26931;43.498;-1.506;2022-12-07T11:33:46;14.00;98.70
34644;DHT22;26931;43.498;-1.506;2022-12-07T11:36:36;14.00;98.70
34644;DHT22;26931;43.498;-1.506;2022-12-07T11:39:33;14.10;98.80
34644;DHT22;26931;43.498;-1.506;2022-12-07T11:42:08;14.10;98.80
34644;DHT22;26931;43.498;-1.506;2022-12-07T11:44:47;14.10;98.80
34644;DHT22;26931;43.498;-1.506;2022-12-07T11:47:18;14.20;98.80
34644;DHT22;26931;43.498;-1.506;2022-12-07T11:50:20;14.20;98.80
34644;DHT22;26931;43.498;-1.506;2022-12-07T11:52:55;14.20;98.80
34644;DHT22;26931;43.498;-1.506;2022-12-07T11:55:38;14.30;98.80
34644;DHT22;26931;43.498;-1.506;2022-12-07T11:58:21;14.30;98.80
34644;DHT22;26931;43.498;-1.506;2022-12-07T12:01:01;14.40;98.80
34644;DHT22;26931;43.498;-1.506;2022-12-07T12:03:34;14.40;98.80
34644;DHT22;26931;43.498;-1.506;2022-12-07T12:06:02;14.40;98.80
34644;DHT22;26931;43.498;-1.506;2022-12-07T12:08:34;14.40;98.80
34644;DHT22;26931;43.498;-1.506;2022-12-07T12:11:35;14.40;98.90
34644;DHT22;26931;43.498;-1.506;2022-12-07T12:14:18;14.50;98.90
34644;DHT22;26931;43.498;-1.506;2022-12-07T12:19:34;14.50;98.90
34644;DHT22;26931;43.498;-1.506;2022-12-07T12:22:17;14.50;98.90
34644;DHT22;26931;43.498;-1.506;2022-12-07T12:24:46;14.50;99.00
34644;DHT22;26931;43.498;-1.506;2022-12-07T12:27:33;14.40;98.90
34644;DHT22;26931;43.498;-1.506;2022-12-07T12:30:02;14.40;98.90
34644;DHT22;26931;43.498;-1.506;2022-12-07T12:32:37;14.40;98.90
34644;DHT22;26931;43.498;-1.506;2022-12-07T12:37:54;14.50;98.90
34644;DHT22;26931;43.498;-1.506;2022-12-07T12:42:48;14.40;98.90
34644;DHT22;26931;43.498;-1.506;2022-12-07T12:45:35;14.40;98.90
34644;DHT22;26931;43.498;-1.506;2022-12-07T12:54:04;14.30;98.90
34644;DHT22;26931;43.498;-1.506;2022-12-07T12:56:53;14.30;98.80
34644;DHT22;26931;43.498;-1.506;2022-12-07T13:01:50;14.10;98.80
34644;DHT22;26931;43.498;-1.506;2022-12-07T13:06:54;14.30;98.80
34644;DHT22;26931;43.498;-1.506;2022-12-07T13:09:33;14.10;98.80
34644;DHT22;26931;43.498;-1.506;2022-12-07T13:12:05;14.00;98.80
34644;DHT22;26931;43.498;-1.506;2022-12-07T13:14:53;14.00;98.80
34644;DHT22;26931;43.498;-1.506;2022-12-07T13:19:58;13.90;98.80
34644;DHT22;26931;43.498;-1.506;2022-12-07T13:22:46;13.90;98.80
34644;DHT22;26931;43.498;-1.506;2022-12-07T13:25:33;13.90;98.90
34644;DHT22;26931;43.498;-1.506;2022-12-07T13:30:45;13.80;98.80
34644;DHT22;26931;43.498;-1.506;2022-12-07T13:33:11;13.80;98.80
34644;DHT22;26931;43.498;-1.506;2022-12-07T13:35:38;13.80;98.70
34644;DHT22;26931;43.498;-1.506;2022-12-07T13:38:28;13.70;98.70
34644;DHT22;26931;43.498;-1.506;2022-12-07T13:41:04;13.70;98.70
34644;DHT22;26931;43.498;-1.506;2022-12-07T13:43:31;13.70;98.70
34644;DHT22;26931;43.498;-1.506;2022-12-07T13:46:00;13.60;98.70
34644;DHT22;26931;43.498;-1.506;2022-12-07T13:48:50;13.60;98.70
34644;DHT22;26931;43.498;-1.506;2022-12-07T13:51:22;13.60;98.70
34644;DHT22;26931;43.498;-1.506;2022-12-07T13:53:53;13.40;98.70
34644;DHT22;26931;43.498;-1.506;2022-12-07T13:56:22;13.40;98.70
34644;DHT22;26931;43.498;-1.506;2022-12-07T13:58:48;13.60;98.70
34644;DHT22;26931;43.498;-1.506;2022-12-07T14:01:14;13.60;98.80
34644;DHT22;26931;43.498;-1.506;2022-12-07T14:03:40;13.50;98.70
34644;DHT22;26931;43.498;-1.506;2022-12-07T14:06:26;13.50;98.70
34644;DHT22;26931;43.498;-1.506;2022-12-07T14:09:09;13.60;98.80
34644;DHT22;26931;43.498;-1.506;2022-12-07T14:11:42;13.60;98.80
34644;DHT22;26931;43.498;-1.506;2022-12-07T14:14:15;13.50;98.70
34644;DHT22;26931;43.498;-1.506;2022-12-07T14:16:42;13.60;98.80
34644;DHT22;26931;43.498;-1.506;2022-12-07T14:20:28;13.60;98.80
34644;DHT22;26931;43.498;-1.506;2022-12-07T14:22:25;13.60;98.90
34644;DHT22;26931;43.498;-1.506;2022-12-07T14:24:57;13.60;99.10
34644;DHT22;26931;43.498;-1.506;2022-12-07T14:27:24;13.70;98.80
34644;DHT22;26931;43.498;-1.506;2022-12-07T14:29:56;13.70;98.80
34644;DHT22;26931;43.498;-1.506;2022-12-07T14:32:28;13.60;98.80
34644;DHT22;26931;43.498;-1.506;2022-12-07T14:35:09;13.70;98.80
34644;DHT22;26931;43.498;-1.506;2022-12-07T14:37:40;13.80;98.80
34644;DHT22;26931;43.498;-1.506;2022-12-07T14:40:07;13.80;98.80
34644;DHT22;26931;43.498;-1.506;2022-12-07T14:42:34;13.80;98.80
34644;DHT22;26931;43.498;-1.506;2022-12-07T14:45:01;13.80;98.80
34644;DHT22;26931;43.498;-1.506;2022-12-07T14:47:27;13.90;98.70
34644;DHT22;26931;43.498;-1.506;2022-12-07T14:49:53;13.70;98.60
34644;DHT22;26931;43.498;-1.506;2022-12-07T14:52:26;13.70;98.60
34644;DHT22;26931;43.498;-1.506;2022-12-07T14:54:53;13.80;98.70
34644;DHT22;26931;43.498;-1.506;2022-12-07T14:57:19;13.80;98.60
34644;DHT22;26931;43.498;-1.506;2022-12-07T14:59:45;13.80;98.50
34644;DHT22;26931;43.498;-1.506;2022-12-07T15:02:13;13.80;98.50
34644;DHT22;26931;43.498;-1.506;2022-12-07T15:04:40;13.80;98.50
34644;DHT22;26931;43.498;-1.506;2022-12-07T15:07:12;13.80;98.50
34644;DHT22;26931;43.498;-1.506;2022-12-07T15:09:40;13.80;98.50
34644;DHT22;26931;43.498;-1.506;2022-12-07T15:12:06;13.70;98.40
34644;DHT22;26931;43.498;-1.506;2022-12-07T15:14:32;13.70;98.40
34644;DHT22;26931;43.498;-1.506;2022-12-07T15:16:58;13.70;98.30
34644;DHT22;26931;43.498;-1.506;2022-12-07T15:19:24;13.80;98.40
34644;DHT22;26931;43.498;-1.506;2022-12-07T15:21:53;13.70;98.40
34644;DHT22;26931;43.498;-1.506;2022-12-07T15:24:20;13.70;98.40
34644;DHT22;26931;43.498;-1.506;2022-12-07T15:26:46;13.70;98.40
34644;DHT22;26931;43.498;-1.506;2022-12-07T15:29:12;13.70;98.40
34644;DHT22;26931;43.498;-1.506;2022-12-07T15:31:40;13.70;98.40
34644;DHT22;26931;43.498;-1.506;2022-12-07T15:34:06;13.60;98.40
34644;DHT22;26931;43.498;-1.506;2022-12-07T15:36:33;13.60;98.40
34644;DHT22;26931;43.498;-1.506;2022-12-07T15:39:00;13.60;98.50
34644;DHT22;26931;43.498;-1.506;2022-12-07T15:41:26;13.60;98.50
34644;DHT22;26931;43.498;-1.506;2022-12-07T15:43:52;13.70;98.50
34644;DHT22;26931;43.498;-1.506;2022-12-07T15:46:37;13.60;98.50
34644;DHT22;26931;43.498;-1.506;2022-12-07T15:49:06;13.60;98.50
34644;DHT22;26931;43.498;-1.506;2022-12-07T15:51:34;13.40;98.40
34644;DHT22;26931;43.498;-1.506;2022-12-07T15:54:00;13.50;98.50
34644;DHT22;26931;43.498;-1.506;2022-12-07T15:56:26;13.50;98.50
34644;DHT22;26931;43.498;-1.506;2022-12-07T15:58:52;13.50;98.50
34644;DHT22;26931;43.498;-1.506;2022-12-07T16:01:19;13.50;98.60
34644;DHT22;26931;43.498;-1.506;2022-12-07T16:03:46;13.50;98.60
34644;DHT22;26931;43.498;-1.506;2022-12-07T16:06:15;13.40;98.60
34644;DHT22;26931;43.498;-1.506;2022-12-07T16:08:45;13.60;98.70
34644;DHT22;26931;43.498;-1.506;2022-12-07T16:11:12;13.40;98.70
34644;DHT22;26931;43.498;-1.506;2022-12-07T16:13:45;13.40;98.70
34644;DHT22;26931;43.498;-1.506;2022-12-07T16:16:23;13.40;98.70
34644;DHT22;26931;43.498;-1.506;2022-12-07T16:18:50;13.40;98.80
34644;DHT22;26931;43.498;-1.506;2022-12-07T16:21:17;13.40;98.70
34644;DHT22;26931;43.498;-1.506;2022-12-07T16:23:43;13.30;98.70
34644;DHT22;26931;43.498;-1.506;2022-12-07T16:26:16;13.40;98.80
34644;DHT22;26931;43.498;-1.506;2022-12-07T16:28:42;13.30;98.80
34644;DHT22;26931;43.498;-1.506;2022-12-07T16:31:14;13.40;98.80
34644;DHT22;26931;43.498;-1.506;2022-12-07T16:33:42;13.40;99.10
34644;DHT22;26931;43.498;-1.506;2022-12-07T16:36:09;13.30;98.70
34644;DHT22;26931;43.498;-1.506;2022-12-07T16:38:37;13.60;98.80
34644;DHT22;26931;43.498;-1.506;2022-12-07T16:41:05;13.30;98.70
34644;DHT22;26931;43.498;-1.506;2022-12-07T16:43:32;13.40;98.70
34644;DHT22;26931;43.498;-1.506;2022-12-07T16:45:58;13.30;98.70
34644;DHT22;26931;43.498;-1.506;2022-12-07T16:48:25;13.30;98.70
34644;DHT22;26931;43.498;-1.506;2022-12-07T16:50:51;13.30;98.70
34644;DHT22;26931;43.498;-1.506;2022-12-07T16:53:20;13.30;98.80
34644;DHT22;26931;43.498;-1.506;2022-12-07T16:55:46;13.30;98.80
34644;DHT22;26931;43.498;-1.506;2022-12-07T16:58:13;13.40;98.90
34644;DHT22;26931;43.498;-1.506;2022-12-07T17:00:41;13.30;98.90
34644;DHT22;26931;43.498;-1.506;2022-12-07T17:03:07;13.20;98.90